sensor_id;sensor_type;location;lat;lon;timestamp;temperature;humidity
11446;DHT22;5779;64.178;15.432;2022-10-24T00:00:06;-4.40;99.90
11446;DHT22;5779;64.178;15.432;2022-10-24T00:02:53;-4.40;99.90
11446;DHT22;5779;64.178;15.432;2022-10-24T00:05:40;-4.40;99.90
11446;DHT22;5779;64.178;15.432;2022-10-24T00:08:29;-4.40;99.90
11446;DHT22;5779;64.178;15.432;2022-10-24T00:11:17;-4.30;99.90
11446;DHT22;5779;64.178;15.432;2022-10-24T00:14:04;-4.20;99.90
11446;DHT22;5779;64.178;15.432;2022-10-24T00:16:51;-4.20;99.90
11446;DHT22;5779;64.178;15.432;2022-10-24T00:19:38;-4.40;99.90
11446;DHT22;5779;64.178;15.432;2022-10-24T00:22:25;-4.50;99.90
11446;DHT22;5779;64.178;15.432;2022-10-24T00:25:14;-4.50;99.90
11446;DHT22;5779;64.178;15.432;2022-10-24T00:28:00;-4.40;99.90
11446;DHT22;5779;64.178;15.432;2022-10-24T00:30:50;-4.20;99.90
11446;DHT22;5779;64.178;15.432;2022-10-24T00:33:37;-4.30;99.90
11446;DHT22;5779;64.178;15.432;2022-10-24T00:36:23;-4.20;99.90
11446;DHT22;5779;64.178;15.432;2022-10-24T00:39:11;-4.10;99.90
11446;DHT22;5779;64.178;15.432;2022-10-24T00:41:59;-4.10;99.90
11446;DHT22;5779;64.178;15.432;2022-10-24T00:44:50;-3.90;99.90
11446;DHT22;5779;64.178;15.432;2022-10-24T00:47:37;-4.10;99.90
11446;DHT22;5779;64.178;15.432;2022-10-24T00:50:24;-4.30;99.90
11446;DHT22;5779;64.178;15.432;2022-10-24T00:53:11;-4.50;99.90
11446;DHT22;5779;64.178;15.432;2022-10-24T00:56:00;-4.40;99.90
11446;DHT22;5779;64.178;15.432;2022-10-24T00:58:49;-4.30;99.90
11446;DHT22;5779;64.178;15.432;2022-10-24T01:01:37;-4.40;99.90
11446;DHT22;5779;64.178;15.432;2022-10-24T01:04:25;-4.40;99.90
11446;DHT22;5779;64.178;15.432;2022-10-24T01:07:20;-4.30;99.90
11446;DHT22;5779;64.178;15.432;2022-10-24T01:10:26;-4.30;99.90
11446;DHT22;5779;64.178;15.432;2022-10-24T01:13:24;-4.40;99.90
11446;DHT22;5779;64.178;15.432;2022-10-24T01:16:20;-4.60;99.90
11446;DHT22;5779;64.178;15.432;2022-10-24T01:19:22;-4.70;99.90
11446;DHT22;5779;64.178;15.432;2022-10-24T01:22:15;-4.70;99.90
11446;DHT22;5779;64.178;15.432;2022-10-24T01:25:08;-4.80;99.90
11446;DHT22;5779;64.178;15.432;2022-10-24T01:28:02;-4.70;99.90
11446;DHT22;5779;64.178;15.432;2022-10-24T01:30:56;-4.60;99.90
11446;DHT22;5779;64.178;15.432;2022-10-24T01:33:49;-4.70;99.90
11446;DHT22;5779;64.178;15.432;2022-10-24T01:36:41;-4.70;99.90
11446;DHT22;5779;64.178;15.432;2022-10-24T01:39:33;-4.60;99.90
11446;DHT22;5779;64.178;15.432;2022-10-24T01:42:23;-4.60;99.90
11446;DHT22;5779;64.178;15.432;2022-10-24T01:45:15;-4.50;99.90
11446;DHT22;5779;64.178;15.432;2022-10-24T01:48:06;-4.40;99.90
11446;DHT22;5779;64.178;15.432;2022-10-24T01:50:55;-4.30;99.90
11446;DHT22;5779;64.178;15.432;2022-10-24T01:53:43;-4.30;99.90
11446;DHT22;5779;64.178;15.432;2022-10-24T01:56:31;-4.30;99.90
11446;DHT22;5779;64.178;15.432;2022-10-24T01:59:39;-4.50;99.90
11446;DHT22;5779;64.178;15.432;2022-10-24T02:02:29;-4.60;99.90
11446;DHT22;5779;64.178;15.432;2022-10-24T02:05:21;-4.50;99.90
11446;DHT22;5779;64.178;15.432;2022-10-24T02:08:12;-4.40;99.90
11446;DHT22;5779;64.178;15.432;2022-10-24T02:11:02;-4.60;99.90
11446;DHT22;5779;64.178;15.432;2022-10-24T02:13:54;-4.60;99.90
11446;DHT22;5779;64.178;15.432;2022-10-24T02:16:43;-4.60;99.90
11446;DHT22;5779;64.178;15.432;2022-10-24T02:19:31;-4.70;99.90
11446;DHT22;5779;64.178;15.432;2022-10-24T02:22:24;-4.80;99.90
11446;DHT22;5779;64.178;15.432;2022-10-24T02:25:15;-4.80;99.90
11446;DHT22;5779;64.178;15.432;2022-10-24T02:28:07;-5.10;99.90
11446;DHT22;5779;64.178;15.432;2022-10-24T02:30:59;-5.20;99.90
11446;DHT22;5779;64.178;15.432;2022-10-24T02:33:47;-5.00;99.90
11446;DHT22;5779;64.178;15.432;2022-10-24T02:36:36;-4.90;99.90
11446;DHT22;5779;64.178;15.432;2022-10-24T02:39:27;-4.90;99.90
11446;DHT22;5779;64.178;15.432;2022-10-24T02:42:15;-4.70;99.90
11446;DHT22;5779;64.178;15.432;2022-10-24T02:45:03;-4.60;99.90
11446;DHT22;5779;64.178;15.432;2022-10-24T02:47:55;-4.80;99.90
11446;DHT22;5779;64.178;15.432;2022-10-24T02:50:43;-4.80;99.90
11446;DHT22;5779;64.178;15.432;2022-10-24T02:53:30;-4.80;99.90
11446;DHT22;5779;64.178;15.432;2022-10-24T02:56:21;-4.90;99.90
11446;DHT22;5779;64.178;15.432;2022-10-24T02:59:08;-4.90;99.90
11446;DHT22;5779;64.178;15.432;2022-10-24T03:01:55;-4.70;99.90
11446;DHT22;5779;64.178;15.432;2022-10-24T03:04:42;-4.70;99.90
11446;DHT22;5779;64.178;15.432;2022-10-24T03:07:29;-4.90;99.90
11446;DHT22;5779;64.178;15.432;2022-10-24T03:10:16;-5.00;99.90
11446;DHT22;5779;64.178;15.432;2022-10-24T03:13:04;-4.90;99.90
11446;DHT22;5779;64.178;15.432;2022-10-24T03:15:50;-5.10;99.90
11446;DHT22;5779;64.178;15.432;2022-10-24T03:18:37;-4.90;99.90
11446;DHT22;5779;64.178;15.432;2022-10-24T03:21:24;-5.10;99.90
11446;DHT22;5779;64.178;15.432;2022-10-24T03:24:11;-5.10;99.90
11446;DHT22;5779;64.178;15.432;2022-10-24T03:26:58;-4.90;99.90
11446;DHT22;5779;64.178;15.432;2022-10-24T03:29:46;-4.70;99.90
11446;DHT22;5779;64.178;15.432;2022-10-24T03:32:33;-4.40;99.90
11446;DHT22;5779;64.178;15.432;2022-10-24T03:35:20;-4.40;99.90
11446;DHT22;5779;64.178;15.432;2022-10-24T03:38:07;-4.30;99.90
11446;DHT22;5779;64.178;15.432;2022-10-24T03:40:54;-4.10;99.90
11446;DHT22;5779;64.178;15.432;2022-10-24T03:43:41;-4.10;99.90
11446;DHT22;5779;64.178;15.432;2022-10-24T03:46:29;-4.60;99.90
11446;DHT22;5779;64.178;15.432;2022-10-24T03:49:15;-4.40;99.90
11446;DHT22;5779;64.178;15.432;2022-10-24T03:52:03;-4.30;99.90
11446;DHT22;5779;64.178;15.432;2022-10-24T03:54:49;-4.10;99.90
11446;DHT22;5779;64.178;15.432;2022-10-24T03:57:36;-4.20;99.90
11446;DHT22;5779;64.178;15.432;2022-10-24T04:00:23;-4.20;99.90
11446;DHT22;5779;64.178;15.432;2022-10-24T04:03:14;-4.20;99.90
11446;DHT22;5779;64.178;15.432;2022-10-24T04:06:00;-4.10;99.90
11446;DHT22;5779;64.178;15.432;2022-10-24T04:08:47;-4.00;99.90
11446;DHT22;5779;64.178;15.432;2022-10-24T04:11:34;-3.90;99.90
11446;DHT22;5779;64.178;15.432;2022-10-24T04:14:20;-3.80;99.90
11446;DHT22;5779;64.178;15.432;2022-10-24T04:17:07;-4.30;99.90
11446;DHT22;5779;64.178;15.432;2022-10-24T04:19:55;-4.20;99.90
11446;DHT22;5779;64.178;15.432;2022-10-24T04:22:42;-4.20;99.90
11446;DHT22;5779;64.178;15.432;2022-10-24T04:25:29;-4.00;99.90
11446;DHT22;5779;64.178;15.432;2022-10-24T04:28:16;-3.80;99.90
11446;DHT22;5779;64.178;15.432;2022-10-24T04:31:02;-3.70;99.90
11446;DHT22;5779;64.178;15.432;2022-10-24T04:33:49;-3.80;99.90
11446;DHT22;5779;64.178;15.432;2022-10-24T04:36:37;-3.70;99.90
11446;DHT22;5779;64.178;15.432;2022-10-24T04:39:24;-3.60;99.90
11446;DHT22;5779;64.178;15.432;2022-10-24T04:42:11;-3.80;99.90
11446;DHT22;5779;64.178;15.432;2022-10-24T04:44:58;-3.80;99.90
11446;DHT22;5779;64.178;15.432;2022-10-24T04:47:44;-3.80;99.90
11446;DHT22;5779;64.178;15.432;2022-10-24T04:50:31;-3.80;99.90
11446;DHT22;5779;64.178;15.432;2022-10-24T04:53:19;-4.00;99.90
11446;DHT22;5779;64.178;15.432;2022-10-24T04:56:06;-4.00;99.90
11446;DHT22;5779;64.178;15.432;2022-10-24T04:58:53;-3.90;99.90
11446;DHT22;5779;64.178;15.432;2022-10-24T05:01:40;-3.80;99.90
11446;DHT22;5779;64.178;15.432;2022-10-24T05:04:27;-3.60;99.90
11446;DHT22;5779;64.178;15.432;2022-10-24T05:07:13;-3.60;99.90
11446;DHT22;5779;64.178;15.432;2022-10-24T05:10:02;-3.40;99.90
11446;DHT22;5779;64.178;15.432;2022-10-24T05:12:51;-3.40;99.90
11446;DHT22;5779;64.178;15.432;2022-10-24T05:15:38;-3.40;99.90
11446;DHT22;5779;64.178;15.432;2022-10-24T05:18:25;-3.00;99.90
11446;DHT22;5779;64.178;15.432;2022-10-24T05:21:11;-2.80;99.90
11446;DHT22;5779;64.178;15.432;2022-10-24T05:23:58;-2.60;99.90
11446;DHT22;5779;64.178;15.432;2022-10-24T05:26:47;-2.50;99.90
11446;DHT22;5779;64.178;15.432;2022-10-24T05:29:34;-2.40;99.90
11446;DHT22;5779;64.178;15.432;2022-10-24T05:32:21;-2.20;99.90
11446;DHT22;5779;64.178;15.432;2022-10-24T05:35:08;-2.20;99.90
11446;DHT22;5779;64.178;15.432;2022-10-24T05:37:55;-2.30;99.90
11446;DHT22;5779;64.178;15.432;2022-10-24T05:40:42;-2.10;99.90
11446;DHT22;5779;64.178;15.432;2022-10-24T05:43:33;-2.20;99.90
11446;DHT22;5779;64.178;15.432;2022-10-24T05:46:19;-2.10;99.90
11446;DHT22;5779;64.178;15.432;2022-10-24T05:49:06;-1.90;99.90
11446;DHT22;5779;64.178;15.432;2022-10-24T05:51:53;-1.80;99.90
11446;DHT22;5779;64.178;15.432;2022-10-24T05:54:40;-1.90;99.90
11446;DHT22;5779;64.178;15.432;2022-10-24T05:57:27;-2.20;99.90
11446;DHT22;5779;64.178;15.432;2022-10-24T06:00:16;-2.30;99.90
11446;DHT22;5779;64.178;15.432;2022-10-24T06:03:03;-2.10;99.90
11446;DHT22;5779;64.178;15.432;2022-10-24T06:05:50;-2.10;99.90
11446;DHT22;5779;64.178;15.432;2022-10-24T06:08:37;-2.00;99.90
11446;DHT22;5779;64.178;15.432;2022-10-24T06:11:24;-1.80;99.90
11446;DHT22;5779;64.178;15.432;2022-10-24T06:14:10;-1.70;99.90
11446;DHT22;5779;64.178;15.432;2022-10-24T06:16:59;-1.50;99.90
11446;DHT22;5779;64.178;15.432;2022-10-24T06:19:46;-1.50;99.90
11446;DHT22;5779;64.178;15.432;2022-10-24T06:22:34;-1.60;99.90
11446;DHT22;5779;64.178;15.432;2022-10-24T06:25:21;-1.50;99.90
11446;DHT22;5779;64.178;15.432;2022-10-24T06:28:08;-1.60;99.90
11446;DHT22;5779;64.178;15.432;2022-10-24T06:30:56;-1.70;99.90
11446;DHT22;5779;64.178;15.432;2022-10-24T06:33:44;-1.80;99.90
11446;DHT22;5779;64.178;15.432;2022-10-24T06:36:30;-1.60;99.90
11446;DHT22;5779;64.178;15.432;2022-10-24T06:39:17;-1.40;99.90
11446;DHT22;5779;64.178;15.432;2022-10-24T06:42:05;-1.30;99.90
11446;DHT22;5779;64.178;15.432;2022-10-24T06:44:51;-1.10;99.90
11446;DHT22;5779;64.178;15.432;2022-10-24T06:47:38;-1.00;99.90
11446;DHT22;5779;64.178;15.432;2022-10-24T06:50:26;-1.00;99.90
11446;DHT22;5779;64.178;15.432;2022-10-24T06:53:13;-0.90;99.90
11446;DHT22;5779;64.178;15.432;2022-10-24T06:56:01;-0.80;99.90
11446;DHT22;5779;64.178;15.432;2022-10-24T06:58:48;-0.60;99.90
11446;DHT22;5779;64.178;15.432;2022-10-24T07:01:35;-0.50;99.90
11446;DHT22;5779;64.178;15.432;2022-10-24T07:04:21;-0.50;99.90
11446;DHT22;5779;64.178;15.432;2022-10-24T07:07:14;-0.40;99.90
11446;DHT22;5779;64.178;15.432;2022-10-24T07:10:01;-0.40;99.90
11446;DHT22;5779;64.178;15.432;2022-10-24T07:12:48;-0.30;99.90
11446;DHT22;5779;64.178;15.432;2022-10-24T07:15:35;-0.40;99.90
11446;DHT22;5779;64.178;15.432;2022-10-24T07:18:21;-0.30;99.90
11446;DHT22;5779;64.178;15.432;2022-10-24T07:21:11;-0.20;99.90
11446;DHT22;5779;64.178;15.432;2022-10-24T07:24:01;-0.20;99.90
11446;DHT22;5779;64.178;15.432;2022-10-24T07:26:48;-0.20;99.90
11446;DHT22;5779;64.178;15.432;2022-10-24T07:29:38;-0.10;99.90
11446;DHT22;5779;64.178;15.432;2022-10-24T07:32:24;-0.20;99.90
11446;DHT22;5779;64.178;15.432;2022-10-24T07:35:11;-0.10;99.90
11446;DHT22;5779;64.178;15.432;2022-10-24T07:37:58;-0.10;99.90
11446;DHT22;5779;64.178;15.432;2022-10-24T07:40:47;0.10;99.90
11446;DHT22;5779;64.178;15.432;2022-10-24T07:43:33;0.20;99.90
11446;DHT22;5779;64.178;15.432;2022-10-24T07:46:20;0.20;99.90
11446;DHT22;5779;64.178;15.432;2022-10-24T07:49:08;0.10;99.90
11446;DHT22;5779;64.178;15.432;2022-10-24T07:51:54;0.00;99.90
11446;DHT22;5779;64.178;15.432;2022-10-24T07:54:41;0.10;99.90
11446;DHT22;5779;64.178;15.432;2022-10-24T07:57:29;0.30;99.90
11446;DHT22;5779;64.178;15.432;2022-10-24T08:00:17;0.30;99.90
11446;DHT22;5779;64.178;15.432;2022-10-24T08:03:03;0.10;99.90
11446;DHT22;5779;64.178;15.432;2022-10-24T08:05:50;0.10;99.90
11446;DHT22;5779;64.178;15.432;2022-10-24T08:08:41;0.20;99.90
11446;DHT22;5779;64.178;15.432;2022-10-24T08:11:28;0.20;99.90
11446;DHT22;5779;64.178;15.432;2022-10-24T08:14:18;0.10;99.90
11446;DHT22;5779;64.178;15.432;2022-10-24T08:17:04;0.20;99.90
11446;DHT22;5779;64.178;15.432;2022-10-24T08:19:51;0.10;99.90
11446;DHT22;5779;64.178;15.432;2022-10-24T08:22:38;0.30;99.90
11446;DHT22;5779;64.178;15.432;2022-10-24T08:25:26;0.30;99.90
11446;DHT22;5779;64.178;15.432;2022-10-24T08:28:12;0.40;99.90
11446;DHT22;5779;64.178;15.432;2022-10-24T08:31:03;0.40;99.90
11446;DHT22;5779;64.178;15.432;2022-10-24T08:33:51;0.40;99.90
11446;DHT22;5779;64.178;15.432;2022-10-24T08:36:38;0.40;99.90
11446;DHT22;5779;64.178;15.432;2022-10-24T08:39:25;0.60;99.90
11446;DHT22;5779;64.178;15.432;2022-10-24T08:42:13;0.60;99.90
11446;DHT22;5779;64.178;15.432;2022-10-24T08:45:01;0.60;99.90
11446;DHT22;5779;64.178;15.432;2022-10-24T08:47:55;0.60;99.90
11446;DHT22;5779;64.178;15.432;2022-10-24T08:50:48;0.50;99.90
11446;DHT22;5779;64.178;15.432;2022-10-24T08:53:37;0.60;99.90
11446;DHT22;5779;64.178;15.432;2022-10-24T08:56:28;0.50;99.90
11446;DHT22;5779;64.178;15.432;2022-10-24T08:59:17;0.40;99.90
11446;DHT22;5779;64.178;15.432;2022-10-24T09:02:13;0.40;99.90
11446;DHT22;5779;64.178;15.432;2022-10-24T09:05:13;0.30;99.90
11446;DHT22;5779;64.178;15.432;2022-10-24T09:08:09;0.40;99.90
11446;DHT22;5779;64.178;15.432;2022-10-24T09:11:03;0.40;99.90
11446;DHT22;5779;64.178;15.432;2022-10-24T09:13:51;0.50;99.90
11446;DHT22;5779;64.178;15.432;2022-10-24T09:16:40;0.60;99.90
11446;DHT22;5779;64.178;15.432;2022-10-24T09:19:29;0.70;99.90
11446;DHT22;5779;64.178;15.432;2022-10-24T09:22:17;0.80;99.90
11446;DHT22;5779;64.178;15.432;2022-10-24T09:25:06;0.70;99.90
11446;DHT22;5779;64.178;15.432;2022-10-24T09:27:54;0.80;99.90
11446;DHT22;5779;64.178;15.432;2022-10-24T09:30:43;1.00;99.90
11446;DHT22;5779;64.178;15.432;2022-10-24T09:33:33;0.80;99.90
11446;DHT22;5779;64.178;15.432;2022-10-24T09:36:21;0.70;99.90
11446;DHT22;5779;64.178;15.432;2022-10-24T09:39:26;0.80;99.90
11446;DHT22;5779;64.178;15.432;2022-10-24T09:42:16;0.80;99.90
11446;DHT22;5779;64.178;15.432;2022-10-24T09:45:30;0.80;99.90
11446;DHT22;5779;64.178;15.432;2022-10-24T09:48:21;0.90;99.90
11446;DHT22;5779;64.178;15.432;2022-10-24T09:51:08;0.90;99.90
11446;DHT22;5779;64.178;15.432;2022-10-24T09:54:23;1.00;99.90
11446;DHT22;5779;64.178;15.432;2022-10-24T09:57:15;1.00;99.90
11446;DHT22;5779;64.178;15.432;2022-10-24T10:00:04;0.80;99.90
11446;DHT22;5779;64.178;15.432;2022-10-24T10:03:00;0.80;99.90
11446;DHT22;5779;64.178;15.432;2022-10-24T10:05:48;0.80;99.90
11446;DHT22;5779;64.178;15.432;2022-10-24T10:08:36;0.90;99.90
11446;DHT22;5779;64.178;15.432;2022-10-24T10:11:25;0.90;99.90
11446;DHT22;5779;64.178;15.432;2022-10-24T10:14:21;0.90;99.90
11446;DHT22;5779;64.178;15.432;2022-10-24T10:17:19;1.00;99.90
11446;DHT22;5779;64.178;15.432;2022-10-24T10:20:22;0.90;99.90
11446;DHT22;5779;64.178;15.432;2022-10-24T10:23:18;0.90;99.90
11446;DHT22;5779;64.178;15.432;2022-10-24T10:26:14;1.00;99.90
11446;DHT22;5779;64.178;15.432;2022-10-24T10:29:03;1.10;99.90
11446;DHT22;5779;64.178;15.432;2022-10-24T10:31:56;1.10;99.90
11446;DHT22;5779;64.178;15.432;2022-10-24T10:34:46;1.00;99.90
11446;DHT22;5779;64.178;15.432;2022-10-24T10:37:40;1.10;99.90
11446;DHT22;5779;64.178;15.432;2022-10-24T10:40:32;1.10;99.90
11446;DHT22;5779;64.178;15.432;2022-10-24T10:43:28;1.10;99.90
11446;DHT22;5779;64.178;15.432;2022-10-24T10:46:31;1.10;99.90
11446;DHT22;5779;64.178;15.432;2022-10-24T10:49:29;1.10;99.90
11446;DHT22;5779;64.178;15.432;2022-10-24T10:52:18;1.20;99.90
11446;DHT22;5779;64.178;15.432;2022-10-24T10:55:17;1.20;99.90
11446;DHT22;5779;64.178;15.432;2022-10-24T10:58:16;1.30;99.90
11446;DHT22;5779;64.178;15.432;2022-10-24T11:01:13;1.30;99.90
11446;DHT22;5779;64.178;15.432;2022-10-24T11:04:08;1.30;99.90
11446;DHT22;5779;64.178;15.432;2022-10-24T11:07:04;1.20;99.90
11446;DHT22;5779;64.178;15.432;2022-10-24T11:09:55;1.20;99.90
11446;DHT22;5779;64.178;15.432;2022-10-24T11:12:44;1.40;99.90
11446;DHT22;5779;64.178;15.432;2022-10-24T11:15:34;1.50;99.90
11446;DHT22;5779;64.178;15.432;2022-10-24T11:18:24;1.50;99.90
11446;DHT22;5779;64.178;15.432;2022-10-24T11:21:13;1.30;99.90
11446;DHT22;5779;64.178;15.432;2022-10-24T11:24:09;1.20;99.90
11446;DHT22;5779;64.178;15.432;2022-10-24T11:27:02;1.30;99.90
11446;DHT22;5779;64.178;15.432;2022-10-24T11:29:56;1.20;99.90
11446;DHT22;5779;64.178;15.432;2022-10-24T11:32:48;1.20;99.90
11446;DHT22;5779;64.178;15.432;2022-10-24T11:35:39;1.30;99.90
11446;DHT22;5779;64.178;15.432;2022-10-24T11:38:29;1.10;99.90
11446;DHT22;5779;64.178;15.432;2022-10-24T11:41:36;1.20;99.90
11446;DHT22;5779;64.178;15.432;2022-10-24T11:44:33;1.20;99.90
11446;DHT22;5779;64.178;15.432;2022-10-24T11:47:44;1.20;99.90
11446;DHT22;5779;64.178;15.432;2022-10-24T11:50:37;1.10;99.90
11446;DHT22;5779;64.178;15.432;2022-10-24T11:53:48;1.10;99.90
11446;DHT22;5779;64.178;15.432;2022-10-24T11:56:42;1.30;99.90
11446;DHT22;5779;64.178;15.432;2022-10-24T11:59:30;1.20;99.90
11446;DHT22;5779;64.178;15.432;2022-10-24T12:05:58;1.10;99.90
11446;DHT22;5779;64.178;15.432;2022-10-24T12:09:24;1.10;99.90
11446;DHT22;5779;64.178;15.432;2022-10-24T12:12:43;1.00;99.90
11446;DHT22;5779;64.178;15.432;2022-10-24T12:15:42;1.10;99.90
11446;DHT22;5779;64.178;15.432;2022-10-24T12:18:34;1.20;99.90
11446;DHT22;5779;64.178;15.432;2022-10-24T12:21:26;1.30;99.90
11446;DHT22;5779;64.178;15.432;2022-10-24T12:24:22;1.30;99.90
11446;DHT22;5779;64.178;15.432;2022-10-24T12:27:21;1.20;99.90
11446;DHT22;5779;64.178;15.432;2022-10-24T12:30:19;1.30;99.90
11446;DHT22;5779;64.178;15.432;2022-10-24T12:33:18;1.30;99.90
11446;DHT22;5779;64.178;15.432;2022-10-24T12:36:08;1.30;99.90
11446;DHT22;5779;64.178;15.432;2022-10-24T12:39:04;1.30;99.90
11446;DHT22;5779;64.178;15.432;2022-10-24T12:41:53;1.40;99.90
11446;DHT22;5779;64.178;15.432;2022-10-24T12:44:42;1.50;99.90
11446;DHT22;5779;64.178;15.432;2022-10-24T12:47:36;1.50;99.90
11446;DHT22;5779;64.178;15.432;2022-10-24T12:57:20;1.50;99.90
11446;DHT22;5779;64.178;15.432;2022-10-24T13:00:22;1.60;99.90
11446;DHT22;5779;64.178;15.432;2022-10-24T13:03:20;1.50;99.90
11446;DHT22;5779;64.178;15.432;2022-10-24T13:06:08;1.60;99.90
11446;DHT22;5779;64.178;15.432;2022-10-24T13:09:15;1.50;99.90
11446;DHT22;5779;64.178;15.432;2022-10-24T13:12:15;1.40;99.90
11446;DHT22;5779;64.178;15.432;2022-10-24T13:15:26;1.50;99.90
11446;DHT22;5779;64.178;15.432;2022-10-24T13:18:25;1.50;99.90
11446;DHT22;5779;64.178;15.432;2022-10-24T13:21:18;1.40;99.90
11446;DHT22;5779;64.178;15.432;2022-10-24T13:24:11;1.40;99.90
11446;DHT22;5779;64.178;15.432;2022-10-24T13:27:26;1.40;99.90
11446;DHT22;5779;64.178;15.432;2022-10-24T13:30:31;1.30;99.90
11446;DHT22;5779;64.178;15.432;2022-10-24T13:33:42;1.30;99.90
11446;DHT22;5779;64.178;15.432;2022-10-24T13:36:30;1.40;99.90
11446;DHT22;5779;64.178;15.432;2022-10-24T13:39:20;1.30;99.90
11446;DHT22;5779;64.178;15.432;2022-10-24T13:42:22;1.40;99.90
11446;DHT22;5779;64.178;15.432;2022-10-24T13:45:22;1.40;99.90
11446;DHT22;5779;64.178;15.432;2022-10-24T13:48:16;1.40;99.90
11446;DHT22;5779;64.178;15.432;2022-10-24T13:51:07;1.30;99.90
11446;DHT22;5779;64.178;15.432;2022-10-24T13:54:01;1.20;99.90
11446;DHT22;5779;64.178;15.432;2022-10-24T13:56:48;1.30;99.90
11446;DHT22;5779;64.178;15.432;2022-10-24T13:59:37;1.40;99.90
11446;DHT22;5779;64.178;15.432;2022-10-24T14:02:28;1.30;99.90
11446;DHT22;5779;64.178;15.432;2022-10-24T14:05:30;1.40;99.90
11446;DHT22;5779;64.178;15.432;2022-10-24T14:08:24;1.40;99.90
11446;DHT22;5779;64.178;15.432;2022-10-24T14:11:13;1.30;99.90
11446;DHT22;5779;64.178;15.432;2022-10-24T14:14:02;1.30;99.90
11446;DHT22;5779;64.178;15.432;2022-10-24T14:17:04;1.30;99.90
11446;DHT22;5779;64.178;15.432;2022-10-24T14:19:53;1.20;99.90
11446;DHT22;5779;64.178;15.432;2022-10-24T14:22:41;1.30;99.90
11446;DHT22;5779;64.178;15.432;2022-10-24T14:25:32;1.30;99.90
11446;DHT22;5779;64.178;15.432;2022-10-24T14:28:26;1.40;99.90
11446;DHT22;5779;64.178;15.432;2022-10-24T14:31:20;1.40;99.90
11446;DHT22;5779;64.178;15.432;2022-10-24T14:34:20;1.40;99.90
11446;DHT22;5779;64.178;15.432;2022-10-24T14:37:12;1.40;99.90
11446;DHT22;5779;64.178;15.432;2022-10-24T14:40:00;1.40;99.90
11446;DHT22;5779;64.178;15.432;2022-10-24T14:42:50;1.50;99.90
11446;DHT22;5779;64.178;15.432;2022-10-24T14:45:37;1.50;99.90
11446;DHT22;5779;64.178;15.432;2022-10-24T14:48:24;1.50;99.90
11446;DHT22;5779;64.178;15.432;2022-10-24T14:51:15;1.50;99.90
11446;DHT22;5779;64.178;15.432;2022-10-24T14:54:03;1.40;99.90
11446;DHT22;5779;64.178;15.432;2022-10-24T14:56:52;1.40;99.90
11446;DHT22;5779;64.178;15.432;2022-10-24T14:59:43;1.50;99.90
11446;DHT22;5779;64.178;15.432;2022-10-24T15:02:32;1.50;99.90
11446;DHT22;5779;64.178;15.432;2022-10-24T15:05:29;1.40;99.90
11446;DHT22;5779;64.178;15.432;2022-10-24T15:08:25;1.60;99.90
11446;DHT22;5779;64.178;15.432;2022-10-24T15:11:18;1.60;99.90
11446;DHT22;5779;64.178;15.432;2022-10-24T15:14:36;1.50;99.90
11446;DHT22;5779;64.178;15.432;2022-10-24T15:17:28;1.60;99.90
11446;DHT22;5779;64.178;15.432;2022-10-24T15:20:16;1.50;99.90
11446;DHT22;5779;64.178;15.432;2022-10-24T15:23:25;1.60;99.90
11446;DHT22;5779;64.178;15.432;2022-10-24T15:26:18;1.60;99.90
11446;DHT22;5779;64.178;15.432;2022-10-24T15:29:15;1.70;99.90
11446;DHT22;5779;64.178;15.432;2022-10-24T15:32:07;1.70;99.90
11446;DHT22;5779;64.178;15.432;2022-10-24T15:34:56;1.80;99.90
11446;DHT22;5779;64.178;15.432;2022-10-24T15:37:52;1.80;99.90
11446;DHT22;5779;64.178;15.432;2022-10-24T15:40:42;1.80;99.90
11446;DHT22;5779;64.178;15.432;2022-10-24T15:43:29;1.80;99.90
11446;DHT22;5779;64.178;15.432;2022-10-24T15:46:21;1.80;99.90
11446;DHT22;5779;64.178;15.432;2022-10-24T15:49:09;1.80;99.90
11446;DHT22;5779;64.178;15.432;2022-10-24T15:52:05;1.80;99.90
11446;DHT22;5779;64.178;15.432;2022-10-24T15:54:52;1.80;99.90
11446;DHT22;5779;64.178;15.432;2022-10-24T15:57:39;1.80;99.90
11446;DHT22;5779;64.178;15.432;2022-10-24T16:00:26;1.80;99.90
11446;DHT22;5779;64.178;15.432;2022-10-24T16:03:16;1.90;99.90
11446;DHT22;5779;64.178;15.432;2022-10-24T16:06:04;1.90;99.90
11446;DHT22;5779;64.178;15.432;2022-10-24T16:08:53;2.00;99.90
11446;DHT22;5779;64.178;15.432;2022-10-24T16:11:40;2.00;99.90
11446;DHT22;5779;64.178;15.432;2022-10-24T16:14:26;1.90;99.90
11446;DHT22;5779;64.178;15.432;2022-10-24T16:17:14;2.00;99.90
11446;DHT22;5779;64.178;15.432;2022-10-24T16:20:01;2.00;99.90
11446;DHT22;5779;64.178;15.432;2022-10-24T16:22:48;2.00;99.90
11446;DHT22;5779;64.178;15.432;2022-10-24T16:25:37;2.00;99.90
11446;DHT22;5779;64.178;15.432;2022-10-24T16:28:24;1.90;99.90
11446;DHT22;5779;64.178;15.432;2022-10-24T16:31:15;1.90;99.90
11446;DHT22;5779;64.178;15.432;2022-10-24T16:34:03;1.90;99.90
11446;DHT22;5779;64.178;15.432;2022-10-24T16:36:52;1.90;99.90
11446;DHT22;5779;64.178;15.432;2022-10-24T16:39:39;1.90;99.90
11446;DHT22;5779;64.178;15.432;2022-10-24T16:42:28;1.90;99.90
11446;DHT22;5779;64.178;15.432;2022-10-24T16:45:15;1.80;99.90
11446;DHT22;5779;64.178;15.432;2022-10-24T16:48:02;1.80;99.90
11446;DHT22;5779;64.178;15.432;2022-10-24T16:50:50;1.80;99.90
11446;DHT22;5779;64.178;15.432;2022-10-24T16:53:36;1.90;99.90
11446;DHT22;5779;64.178;15.432;2022-10-24T16:56:23;1.80;99.90
11446;DHT22;5779;64.178;15.432;2022-10-24T16:59:11;1.90;99.90
11446;DHT22;5779;64.178;15.432;2022-10-24T17:01:58;1.90;99.90
11446;DHT22;5779;64.178;15.432;2022-10-24T17:04:45;1.80;99.90
11446;DHT22;5779;64.178;15.432;2022-10-24T17:07:31;1.90;99.90
11446;DHT22;5779;64.178;15.432;2022-10-24T17:10:18;2.00;99.90
11446;DHT22;5779;64.178;15.432;2022-10-24T17:13:05;2.10;99.90
11446;DHT22;5779;64.178;15.432;2022-10-24T17:15:54;2.10;99.90
11446;DHT22;5779;64.178;15.432;2022-10-24T17:18:41;2.10;99.90
11446;DHT22;5779;64.178;15.432;2022-10-24T17:21:27;2.00;99.90
11446;DHT22;5779;64.178;15.432;2022-10-24T17:24:15;2.10;99.90
11446;DHT22;5779;64.178;15.432;2022-10-24T17:27:03;2.10;99.90
11446;DHT22;5779;64.178;15.432;2022-10-24T17:29:50;2.00;99.90
11446;DHT22;5779;64.178;15.432;2022-10-24T17:32:39;2.20;99.90
11446;DHT22;5779;64.178;15.432;2022-10-24T17:35:26;2.10;99.90
11446;DHT22;5779;64.178;15.432;2022-10-24T17:38:28;2.10;99.90
11446;DHT22;5779;64.178;15.432;2022-10-24T17:41:21;2.10;99.90
11446;DHT22;5779;64.178;15.432;2022-10-24T17:44:13;2.10;99.90
11446;DHT22;5779;64.178;15.432;2022-10-24T17:47:00;2.00;99.90
11446;DHT22;5779;64.178;15.432;2022-10-24T17:49:48;2.00;99.90
11446;DHT22;5779;64.178;15.432;2022-10-24T17:52:35;2.00;99.90
11446;DHT22;5779;64.178;15.432;2022-10-24T17:55:25;2.00;99.90
11446;DHT22;5779;64.178;15.432;2022-10-24T17:58:11;2.10;99.90
11446;DHT22;5779;64.178;15.432;2022-10-24T18:00:58;2.00;99.90
11446;DHT22;5779;64.178;15.432;2022-10-24T18:03:45;2.00;99.90
11446;DHT22;5779;64.178;15.432;2022-10-24T18:06:33;2.00;99.90
11446;DHT22;5779;64.178;15.432;2022-10-24T18:09:20;2.10;99.90
11446;DHT22;5779;64.178;15.432;2022-10-24T18:12:07;2.10;99.90
11446;DHT22;5779;64.178;15.432;2022-10-24T18:14:54;2.10;99.90
11446;DHT22;5779;64.178;15.432;2022-10-24T18:17:41;2.10;99.90